Sitka, AK

7:28 PM AKST on January 24, 2015 (GMT -0900)
Hoonah | Change Station
CLOSE
Current Station
Airport
Location: Hoonah,
Elevation: 0 ft
Nearby Weather Stations

Elev 0 ft 58.11 °N, 135.45 °W | Updated 32 minutes ago

Overcast
Overcast
41 °F
Feels Like 35 °F
N
9
Wind Variable Wind from ESE

Today
High -- | Low -- °F
--% Chance of Precip.
Yesterday
High -- | Low -- °F
Precip. -- in
8:15 AM 4:12 PM
Waxing Crescent, 28% visible
Pressure 29.07 in
Visibility 4.0 miles
Clouds Few 1400 ft
Mostly Cloudy 2100 ft
Overcast 2800 ft
Windchill 35 °F
Dew Point 41 °F
Humidity 100%
Rainfall 0.42 in
Snow Depth Not available.
UV 0 out of 12
Pollen Not available.
Air Quality Not available.
Flu Activity Not available.
METAR PAOH 250356Z AUTO 12008KT 4SM BR FEW014 BKN021 OVC028 05/05 A2906 RMK AO2 TSNO T00500050 RAE46 P0003 SLP842 $

More Conditions Fewer Conditions

Pressure 29.07 in
Visibility 4.0 miles
Clouds Few 1400 ft
Mostly Cloudy 2100 ft
Overcast 2800 ft
Windchill 35 °F
Dew Point 41 °F
Humidity 100%
Rainfall 0.42 in
Snow Depth Not available.
UV 0 out of 12
Pollen Not available.
Air Quality Not available.
Flu Activity Not available.
METAR PAOH 250356Z AUTO 12008KT 4SM BR FEW014 BKN021 OVC028 05/05 A2906 RMK AO2 TSNO T00500050 RAE46 P0003 SLP842 $

More Conditions Fewer Conditions

10-Day Weather Forecast

Almanac

Astronomy

Jan. 24, 2015 Rise Set
Actual Time
Civil Twilight
Nautical Twilight
Astronomical Twilight
Moon
Length of Visible Light
Length of Day
Tomorrow will be .
, % of the Moon is Illuminated

Today's Extremes

State Highs State Lows

Community

WunderPhotos

Upload Photos

1,789,838 photos uploaded!

WunderBlogs® & News

Nearby

Air Quality

  Air Quality AQ Index Pollutant
Not available.

Snow Depth

Station Depth Elevation

Earthquake Activity

City Distance Mag. Time & Date
Minimum magnitude displayed is 2.5.

Coastal Water Temperatures

Place Temperature

Nearby Weather Stations